sensor_id;sensor_type;location;lat;lon;timestamp;temperature;humidity
20504;DHT22;10410;51.046;6.980;2022-07-11T00:02:50;18.30;99.90
20504;DHT22;10410;51.046;6.980;2022-07-11T00:09:50;18.20;99.90
20504;DHT22;10410;51.046;6.980;2022-07-11T00:16:52;18.30;99.90
20504;DHT22;10410;51.046;6.980;2022-07-11T00:23:53;18.30;99.90
20504;DHT22;10410;51.046;6.980;2022-07-11T00:30:53;18.30;99.90
20504;DHT22;10410;51.046;6.980;2022-07-11T00:37:54;18.20;99.90
20504;DHT22;10410;51.046;6.980;2022-07-11T00:44:54;18.20;99.90
20504;DHT22;10410;51.046;6.980;2022-07-11T00:51:55;18.10;99.90
20504;DHT22;10410;51.046;6.980;2022-07-11T00:58:57;18.10;99.90
20504;DHT22;10410;51.046;6.980;2022-07-11T01:05:58;18.00;99.90
20504;DHT22;10410;51.046;6.980;2022-07-11T01:12:58;17.90;99.90
20504;DHT22;10410;51.046;6.980;2022-07-11T01:19:58;17.90;99.90
20504;DHT22;10410;51.046;6.980;2022-07-11T01:27:01;17.80;99.90
20504;DHT22;10410;51.046;6.980;2022-07-11T01:34:01;17.80;99.90
20504;DHT22;10410;51.046;6.980;2022-07-11T01:41:02;17.80;99.90
20504;DHT22;10410;51.046;6.980;2022-07-11T01:48:02;17.70;99.90
20504;DHT22;10410;51.046;6.980;2022-07-11T01:55:03;17.60;99.90
20504;DHT22;10410;51.046;6.980;2022-07-11T02:02:03;17.50;99.90
20504;DHT22;10410;51.046;6.980;2022-07-11T02:09:04;17.40;99.90
20504;DHT22;10410;51.046;6.980;2022-07-11T02:16:05;17.30;99.90
20504;DHT22;10410;51.046;6.980;2022-07-11T02:23:06;17.20;99.90
20504;DHT22;10410;51.046;6.980;2022-07-11T02:30:07;17.00;99.90
20504;DHT22;10410;51.046;6.980;2022-07-11T02:37:07;16.90;99.90
20504;DHT22;10410;51.046;6.980;2022-07-11T02:44:07;16.70;99.90
20504;DHT22;10410;51.046;6.980;2022-07-11T02:51:08;16.50;99.90
20504;DHT22;10410;51.046;6.980;2022-07-11T02:58:08;16.40;99.90
20504;DHT22;10410;51.046;6.980;2022-07-11T03:05:09;16.20;99.90
20504;DHT22;10410;51.046;6.980;2022-07-11T03:12:09;16.10;99.90
20504;DHT22;10410;51.046;6.980;2022-07-11T03:19:10;16.00;99.90
20504;DHT22;10410;51.046;6.980;2022-07-11T03:26:10;15.90;99.90
20504;DHT22;10410;51.046;6.980;2022-07-11T03:33:11;15.80;99.90
20504;DHT22;10410;51.046;6.980;2022-07-11T03:40:12;15.80;99.90
20504;DHT22;10410;51.046;6.980;2022-07-11T03:47:12;15.80;99.90
20504;DHT22;10410;51.046;6.980;2022-07-11T03:54:13;15.80;99.90
20504;DHT22;10410;51.046;6.980;2022-07-11T04:01:14;15.80;99.90
20504;DHT22;10410;51.046;6.980;2022-07-11T04:08:14;15.80;99.90
20504;DHT22;10410;51.046;6.980;2022-07-11T04:15:15;15.80;99.90
20504;DHT22;10410;51.046;6.980;2022-07-11T04:22:16;16.00;99.90
20504;DHT22;10410;51.046;6.980;2022-07-11T04:29:16;15.90;99.90
20504;DHT22;10410;51.046;6.980;2022-07-11T04:36:17;16.00;99.90
20504;DHT22;10410;51.046;6.980;2022-07-11T04:43:17;16.00;99.90
20504;DHT22;10410;51.046;6.980;2022-07-11T04:50:18;16.10;99.90
20504;DHT22;10410;51.046;6.980;2022-07-11T04:57:18;16.20;99.90
20504;DHT22;10410;51.046;6.980;2022-07-11T05:04:19;16.30;99.90
20504;DHT22;10410;51.046;6.980;2022-07-11T05:11:20;16.30;99.90
20504;DHT22;10410;51.046;6.980;2022-07-11T05:18:26;16.40;99.90
20504;DHT22;10410;51.046;6.980;2022-07-11T05:25:27;16.40;99.90
20504;DHT22;10410;51.046;6.980;2022-07-11T05:32:27;16.40;99.90
20504;DHT22;10410;51.046;6.980;2022-07-11T05:39:35;16.40;99.90
20504;DHT22;10410;51.046;6.980;2022-07-11T05:46:35;16.50;99.90
20504;DHT22;10410;51.046;6.980;2022-07-11T05:53:40;16.60;99.90
20504;DHT22;10410;51.046;6.980;2022-07-11T06:00:41;16.70;99.90
20504;DHT22;10410;51.046;6.980;2022-07-11T06:07:41;16.90;99.90
20504;DHT22;10410;51.046;6.980;2022-07-11T06:15:00;17.00;99.90
20504;DHT22;10410;51.046;6.980;2022-07-11T06:22:01;17.20;99.90
20504;DHT22;10410;51.046;6.980;2022-07-11T06:29:01;17.20;99.90
20504;DHT22;10410;51.046;6.980;2022-07-11T06:36:03;17.20;99.90
20504;DHT22;10410;51.046;6.980;2022-07-11T06:43:04;17.20;99.90
20504;DHT22;10410;51.046;6.980;2022-07-11T06:50:08;17.20;99.90
20504;DHT22;10410;51.046;6.980;2022-07-11T06:57:08;17.30;99.90
20504;DHT22;10410;51.046;6.980;2022-07-11T07:04:12;17.50;99.90
20504;DHT22;10410;51.046;6.980;2022-07-11T07:11:12;17.50;99.90
20504;DHT22;10410;51.046;6.980;2022-07-11T07:18:13;17.90;99.90
20504;DHT22;10410;51.046;6.980;2022-07-11T07:25:14;18.10;99.90
20504;DHT22;10410;51.046;6.980;2022-07-11T07:32:14;18.40;99.90
20504;DHT22;10410;51.046;6.980;2022-07-11T07:39:15;18.40;99.90
20504;DHT22;10410;51.046;6.980;2022-07-11T07:46:16;18.30;99.90
20504;DHT22;10410;51.046;6.980;2022-07-11T07:53:17;18.30;99.90
20504;DHT22;10410;51.046;6.980;2022-07-11T08:00:17;18.30;99.90
20504;DHT22;10410;51.046;6.980;2022-07-11T08:07:38;18.30;99.90
20504;DHT22;10410;51.046;6.980;2022-07-11T08:14:38;18.40;99.90
20504;DHT22;10410;51.046;6.980;2022-07-11T08:21:39;18.60;99.90
20504;DHT22;10410;51.046;6.980;2022-07-11T08:28:40;18.80;99.90
20504;DHT22;10410;51.046;6.980;2022-07-11T08:35:40;18.80;99.90
20504;DHT22;10410;51.046;6.980;2022-07-11T08:42:42;18.80;99.90
20504;DHT22;10410;51.046;6.980;2022-07-11T08:49:44;18.90;99.90
20504;DHT22;10410;51.046;6.980;2022-07-11T08:56:45;19.00;99.90
20504;DHT22;10410;51.046;6.980;2022-07-11T09:03:46;19.00;99.90
20504;DHT22;10410;51.046;6.980;2022-07-11T09:10:48;19.10;99.90
20504;DHT22;10410;51.046;6.980;2022-07-11T09:17:48;19.10;99.90
20504;DHT22;10410;51.046;6.980;2022-07-11T09:25:00;19.30;99.90
20504;DHT22;10410;51.046;6.980;2022-07-11T09:32:19;19.40;99.90
20504;DHT22;10410;51.046;6.980;2022-07-11T09:39:27;19.50;99.90
20504;DHT22;10410;51.046;6.980;2022-07-11T09:46:28;19.50;99.90
20504;DHT22;10410;51.046;6.980;2022-07-11T09:53:53;19.70;99.90
20504;DHT22;10410;51.046;6.980;2022-07-11T10:00:54;19.80;99.90
20504;DHT22;10410;51.046;6.980;2022-07-11T10:07:54;19.80;99.90
20504;DHT22;10410;51.046;6.980;2022-07-11T10:14:56;19.60;99.90
20504;DHT22;10410;51.046;6.980;2022-07-11T10:29:14;19.60;99.90
20504;DHT22;10410;51.046;6.980;2022-07-11T10:36:26;19.50;99.90
20504;DHT22;10410;51.046;6.980;2022-07-11T10:50:35;19.40;99.90
20504;DHT22;10410;51.046;6.980;2022-07-11T10:57:41;19.50;99.90
20504;DHT22;10410;51.046;6.980;2022-07-11T11:04:55;19.50;99.90
20504;DHT22;10410;51.046;6.980;2022-07-11T11:11:58;19.70;99.90
20504;DHT22;10410;51.046;6.980;2022-07-11T11:18:58;19.90;99.90
20504;DHT22;10410;51.046;6.980;2022-07-11T11:26:17;19.90;99.90
20504;DHT22;10410;51.046;6.980;2022-07-11T11:33:17;20.00;99.90
20504;DHT22;10410;51.046;6.980;2022-07-11T11:40:18;20.00;99.90
20504;DHT22;10410;51.046;6.980;2022-07-11T11:47:19;20.00;99.90
20504;DHT22;10410;51.046;6.980;2022-07-11T11:54:24;20.10;99.90
20504;DHT22;10410;51.046;6.980;2022-07-11T12:01:27;20.20;99.90
20504;DHT22;10410;51.046;6.980;2022-07-11T12:08:28;20.40;99.90
20504;DHT22;10410;51.046;6.980;2022-07-11T12:15:33;20.40;99.90
20504;DHT22;10410;51.046;6.980;2022-07-11T12:22:53;20.40;99.90
20504;DHT22;10410;51.046;6.980;2022-07-11T12:29:53;20.50;99.90
20504;DHT22;10410;51.046;6.980;2022-07-11T12:44:27;20.60;99.90
20504;DHT22;10410;51.046;6.980;2022-07-11T12:51:46;20.90;99.90
20504;DHT22;10410;51.046;6.980;2022-07-11T12:58:46;21.00;99.90
20504;DHT22;10410;51.046;6.980;2022-07-11T13:05:51;20.90;99.90
20504;DHT22;10410;51.046;6.980;2022-07-11T13:12:53;20.90;99.90
20504;DHT22;10410;51.046;6.980;2022-07-11T13:19:54;21.00;99.90
20504;DHT22;10410;51.046;6.980;2022-07-11T13:26:56;21.20;99.90
20504;DHT22;10410;51.046;6.980;2022-07-11T13:33:57;21.20;99.90
20504;DHT22;10410;51.046;6.980;2022-07-11T13:40:58;21.00;99.90
20504;DHT22;10410;51.046;6.980;2022-07-11T13:47:58;20.80;99.90
20504;DHT22;10410;51.046;6.980;2022-07-11T13:54:59;20.80;99.90
20504;DHT22;10410;51.046;6.980;2022-07-11T14:01:59;20.70;99.90
20504;DHT22;10410;51.046;6.980;2022-07-11T14:09:00;20.70;99.90
20504;DHT22;10410;51.046;6.980;2022-07-11T14:16:02;20.80;99.90
20504;DHT22;10410;51.046;6.980;2022-07-11T14:23:11;21.00;99.90
20504;DHT22;10410;51.046;6.980;2022-07-11T14:30:12;21.40;99.90
20504;DHT22;10410;51.046;6.980;2022-07-11T14:37:12;21.60;99.90
20504;DHT22;10410;51.046;6.980;2022-07-11T14:44:13;21.70;99.90
20504;DHT22;10410;51.046;6.980;2022-07-11T14:51:14;21.80;99.90
20504;DHT22;10410;51.046;6.980;2022-07-11T14:58:35;21.90;99.90
20504;DHT22;10410;51.046;6.980;2022-07-11T15:05:35;21.80;99.90
20504;DHT22;10410;51.046;6.980;2022-07-11T15:12:36;21.70;99.90
20504;DHT22;10410;51.046;6.980;2022-07-11T15:19:38;21.70;99.90
20504;DHT22;10410;51.046;6.980;2022-07-11T15:26:39;21.70;99.90
20504;DHT22;10410;51.046;6.980;2022-07-11T15:33:41;21.70;99.90
20504;DHT22;10410;51.046;6.980;2022-07-11T15:40:45;21.70;99.90
20504;DHT22;10410;51.046;6.980;2022-07-11T15:47:46;21.60;99.90
20504;DHT22;10410;51.046;6.980;2022-07-11T15:54:47;21.60;99.90
20504;DHT22;10410;51.046;6.980;2022-07-11T16:01:48;21.70;99.90
20504;DHT22;10410;51.046;6.980;2022-07-11T16:08:48;21.80;99.90
20504;DHT22;10410;51.046;6.980;2022-07-11T16:15:49;21.90;99.90
20504;DHT22;10410;51.046;6.980;2022-07-11T16:22:50;21.80;99.90
20504;DHT22;10410;51.046;6.980;2022-07-11T16:29:50;21.60;99.90
20504;DHT22;10410;51.046;6.980;2022-07-11T16:36:51;21.50;99.90
20504;DHT22;10410;51.046;6.980;2022-07-11T16:43:52;21.60;99.90
20504;DHT22;10410;51.046;6.980;2022-07-11T16:50:53;21.70;99.90
20504;DHT22;10410;51.046;6.980;2022-07-11T16:57:54;22.00;99.90
20504;DHT22;10410;51.046;6.980;2022-07-11T17:04:54;22.60;99.90
20504;DHT22;10410;51.046;6.980;2022-07-11T17:11:56;23.30;99.90
20504;DHT22;10410;51.046;6.980;2022-07-11T17:18:58;23.80;99.90
20504;DHT22;10410;51.046;6.980;2022-07-11T17:25:59;24.20;99.90
20504;DHT22;10410;51.046;6.980;2022-07-11T17:33:00;24.30;99.90
20504;DHT22;10410;51.046;6.980;2022-07-11T17:40:00;24.30;99.90
20504;DHT22;10410;51.046;6.980;2022-07-11T17:47:03;24.50;99.90
20504;DHT22;10410;51.046;6.980;2022-07-11T17:54:04;24.40;99.90
20504;DHT22;10410;51.046;6.980;2022-07-11T18:01:04;24.20;99.90
20504;DHT22;10410;51.046;6.980;2022-07-11T18:08:06;24.50;99.90
20504;DHT22;10410;51.046;6.980;2022-07-11T18:15:08;24.60;99.90
20504;DHT22;10410;51.046;6.980;2022-07-11T18:22:09;24.70;99.90
20504;DHT22;10410;51.046;6.980;2022-07-11T18:29:11;24.80;99.90
20504;DHT22;10410;51.046;6.980;2022-07-11T18:36:11;24.70;99.90
20504;DHT22;10410;51.046;6.980;2022-07-11T18:43:12;24.40;99.90
20504;DHT22;10410;51.046;6.980;2022-07-11T18:50:13;24.00;99.90
20504;DHT22;10410;51.046;6.980;2022-07-11T18:57:14;23.80;99.90
20504;DHT22;10410;51.046;6.980;2022-07-11T19:04:16;23.30;99.90
20504;DHT22;10410;51.046;6.980;2022-07-11T19:11:17;23.00;99.90
20504;DHT22;10410;51.046;6.980;2022-07-11T19:18:17;22.70;99.90
20504;DHT22;10410;51.046;6.980;2022-07-11T19:25:18;22.30;99.90
20504;DHT22;10410;51.046;6.980;2022-07-11T19:32:19;22.00;99.90
20504;DHT22;10410;51.046;6.980;2022-07-11T19:39:19;21.70;99.90
20504;DHT22;10410;51.046;6.980;2022-07-11T19:46:20;21.40;99.90
20504;DHT22;10410;51.046;6.980;2022-07-11T19:53:20;21.00;99.90
20504;DHT22;10410;51.046;6.980;2022-07-11T20:00:22;20.60;99.90
20504;DHT22;10410;51.046;6.980;2022-07-11T20:07:23;20.30;99.90
20504;DHT22;10410;51.046;6.980;2022-07-11T20:14:25;20.10;99.90
20504;DHT22;10410;51.046;6.980;2022-07-11T20:21:26;19.90;99.90
20504;DHT22;10410;51.046;6.980;2022-07-11T20:28:26;19.60;99.90
20504;DHT22;10410;51.046;6.980;2022-07-11T20:35:27;19.40;99.90
20504;DHT22;10410;51.046;6.980;2022-07-11T20:42:28;19.10;99.90
20504;DHT22;10410;51.046;6.980;2022-07-11T20:49:29;19.00;99.90
20504;DHT22;10410;51.046;6.980;2022-07-11T20:56:29;18.80;99.90
20504;DHT22;10410;51.046;6.980;2022-07-11T21:03:30;18.60;99.90
20504;DHT22;10410;51.046;6.980;2022-07-11T21:10:30;18.30;99.90
20504;DHT22;10410;51.046;6.980;2022-07-11T21:17:30;18.30;99.90
20504;DHT22;10410;51.046;6.980;2022-07-11T21:24:31;18.10;99.90
20504;DHT22;10410;51.046;6.980;2022-07-11T21:31:32;17.90;99.90
20504;DHT22;10410;51.046;6.980;2022-07-11T21:38:33;17.70;99.90
20504;DHT22;10410;51.046;6.980;2022-07-11T21:45:33;17.60;99.90
20504;DHT22;10410;51.046;6.980;2022-07-11T21:52:41;17.50;99.90
20504;DHT22;10410;51.046;6.980;2022-07-11T21:59:42;17.30;99.90
20504;DHT22;10410;51.046;6.980;2022-07-11T22:06:43;17.20;99.90
20504;DHT22;10410;51.046;6.980;2022-07-11T22:13:43;17.00;99.90
20504;DHT22;10410;51.046;6.980;2022-07-11T22:20:44;16.90;99.90
20504;DHT22;10410;51.046;6.980;2022-07-11T22:27:44;16.80;99.90
20504;DHT22;10410;51.046;6.980;2022-07-11T22:34:45;16.80;99.90
20504;DHT22;10410;51.046;6.980;2022-07-11T22:41:46;16.70;99.90
20504;DHT22;10410;51.046;6.980;2022-07-11T22:48:46;16.60;99.90
20504;DHT22;10410;51.046;6.980;2022-07-11T22:55:51;16.50;99.90
20504;DHT22;10410;51.046;6.980;2022-07-11T23:02:51;16.40;99.90
20504;DHT22;10410;51.046;6.980;2022-07-11T23:09:52;16.30;99.90
20504;DHT22;10410;51.046;6.980;2022-07-11T23:16:53;16.30;99.90
20504;DHT22;10410;51.046;6.980;2022-07-11T23:23:53;16.20;99.90
20504;DHT22;10410;51.046;6.980;2022-07-11T23:30:53;16.10;99.90
20504;DHT22;10410;51.046;6.980;2022-07-11T23:37:54;16.00;99.90
20504;DHT22;10410;51.046;6.980;2022-07-11T23:44:54;15.90;99.90
20504;DHT22;10410;51.046;6.980;2022-07-11T23:51:55;15.90;99.90
20504;DHT22;10410;51.046;6.980;2022-07-11T23:58:56;15.80;99.90
